Flight Track Log - Related Links

Times and Time Zones

All times are in EDT time to prevent confusion due to time zone crossing. See the DAL5916 flight status page for this flight to view local times or setup timezone preferences in your user account.

Time Position Orientation Groundspeed Altitude Reporting Facility
EDT Latitude Longitude Course Direction KTS km/h feet Rate Location/Type
Wed 14:48:46 38.8667 -77.0500 74° East 148 274 1.100  Level Potomac TRACON
Wed 14:49:46 38.9000 -77.1000 311° West 196 364 3.800 3.000 Climbing Potomac TRACON
Wed 14:50:46 38.9500 -77.1500 322° Northwest 248 459 7.100 2.788 Climbing Potomac TRACON
Wed 14:52:00 38.9509 -76.6305 67° East  Level FlightAware Approximate
Wed 14:53:00 38.9805 -76.5278 72° East  Level FlightAware Approximate
Wed 14:53:04 39.0481 -77.0750 31° Northeast 239 443 13.000  Level Washington Center
Wed 14:54:00 39.0043 -76.4225 74° East  Level FlightAware Approximate
Wed 14:54:04 39.0433 -76.9492 93° East 273 505 15.900  Level Washington Center
Wed 14:55:04 39.0386 -76.8128 93° East 327 605 18.200 2.521 Climbing Washington Center
Wed 14:56:03 39.0356 -76.6767 92° East 340 629 20.900 1.412 Climbing Washington Center
Wed 14:57:03 39.0286 -76.5347 94° East 377 698 21.000 50 Climbing Washington Center
Wed 14:58:04 39.0253 -76.3906 92° East 393 727 21.000  Level Washington Center
Wed 14:59:02 39.0533 -76.2464 76° East 398 737 21.000  Level Washington Center
Wed 15:00:03 39.0978 -76.0892 70° East 411 761 21.000  Level Washington Center
Wed 15:01:04 39.1483 -75.9608 63° Northeast 411 761 21.000  Level Washington Center
Wed 15:02:02 39.2111 -75.8381 57° Northeast 404 748 21.000  Level Washington Center
Wed 15:03:02 39.2739 -75.7203 55° Northeast 404 748 21.000  Level Washington Center
Wed 15:04:03 39.3386 -75.5997 55° Northeast 404 748 21.000  Level Washington Center
Wed 15:05:03 39.4008 -75.4789 56° Northeast 404 748 21.000  Level Washington Center
Wed 15:06:04 39.4611 -75.3603 57° Northeast 399 739 21.000  Level Washington Center
Wed 15:07:04 39.5317 -75.2472 51° Northeast 399 739 21.000  Level Washington Center
Wed 15:08:03 39.6231 -75.1658 34° Northeast 393 727 21.000  Level Washington Center
Wed 15:09:03 39.7042 -75.0925 35° Northeast 388 719 21.000 -347 Level Washington Center
Wed 15:10:04 39.8039 -75.0056 34° Northeast 394 729 20.300 -1.916 Descending Washington Center
Wed 15:11:02 39.8847 -74.9344 34° Northeast 394 729 17.200 -3.277 Descending Washington Center
Wed 15:12:03 39.9653 -74.8389 42° Northeast 389 721 13.800 -3.149 Descending Washington Center
Wed 15:12:43 40.0167 -74.7667 47° Northeast 361 668 11.900 -2.220 Descending New York TRACON
Wed 15:13:43 40.0833 -74.6667 49° Northeast 350 649 10.100 -950 Descending New York TRACON
Wed 15:14:43 40.1500 -74.5667 49° Northeast 350 649 10.000 -53 Descending New York TRACON
Wed 15:15:37 40.2000 -74.5000 46° Northeast 307 568 10.000 -211 Level New York TRACON
Wed 15:16:37 40.2500 -74.4333 45° Northeast 242 447 9.600 -500 Descending New York TRACON
Wed 15:17:37 40.3000 -74.3833 37° Northeast 235 435 9.000 -500 Descending New York TRACON
Wed 15:18:37 40.3333 -74.3167 57° Northeast 202 373 8.600 -700 Descending New York TRACON
Wed 15:19:37 40.3833 -74.2667 37° Northeast 192 356 7.600 -800 Descending New York TRACON
Wed 15:20:37 40.4167 -74.2167 49° Northeast 186 344 7.000 -300 Descending New York TRACON
Wed 15:21:37 40.4333 -74.1667 66° East 186 344 7.000 -300 Level New York TRACON
Wed 15:22:37 40.4833 -74.1333 27° Northeast 187 346 6.400 -1.000 Descending New York TRACON
Wed 15:23:37 40.5167 -74.0833 49° Northeast 186 344 5.000 -1.140 Descending New York TRACON
Wed 15:24:38 40.5667 -74.0500 27° Northeast 176 327 4.100 -793 Descending New York TRACON
Wed 15:25:38 40.6000 -74.0167 37° Northeast 177 328 3.400 -750 Descending New York TRACON
Wed 15:26:38 40.6500 -73.9833 27° Northeast 175 323 2.600 -756 Descending New York TRACON
Wed 15:27:37 40.6833 -73.9500 37° Northeast 178 330 1.900 -712 Descending New York TRACON

Login

Don't have an account? Register now (free) for customized features, flight alerts, and more!